Time;durP1;ratioP1;P1;durP2;ratioP2;P2;SDS_P1;SDS_P2;PMS_P1;PMS_P2;Temp;Humidity;BMP_temperature;BMP_pressure;BME280_temperature;BME280_humidity;BME280_pressure;Samples;Min_cycle;Max_cycle;Signal;HPM_P1;HPM_P2
2022/07/04 00:00:10;;;;;;;5.82;3.80;;;;;;;18.06;100.00;97205.47;5043186;28;20045;-69
2022/07/04 00:02:39;;;;;;;6.80;3.75;;;;;;;18.24;98.95;97234.13;5044564;28;20439;-68
2022/07/04 00:05:10;;;;;;;5.63;3.60;;;;;;;18.23;98.12;97246.56;5043024;28;20515;-67
2022/07/04 00:07:38;;;;;;;11.13;4.18;;;;;;;18.31;97.03;97227.63;5044442;28;20114;-73
2022/07/04 00:10:06;;;;;;;5.53;3.35;;;;;;;18.27;95.73;97233.31;5049786;28;20044;-67
2022/07/04 00:12:33;;;;;;;5.78;3.60;;;;;;;15.22;96.71;96744.13;5062831;28;20450;-66
2022/07/04 00:15:01;;;;;;;7.00;3.60;;;;;;;18.18;96.99;97224.56;5064172;28;20056;-73
2022/07/04 00:17:28;;;;;;;3.78;3.13;;;;;;;17.94;96.69;97206.00;5064358;28;20058;-74
2022/07/04 00:19:55;;;;;;;6.78;3.55;;;;;;;18.03;97.51;97218.31;5064515;28;20060;-74
2022/07/04 00:22:21;;;;;;;9.48;3.55;;;;;;;17.65;97.38;97157.00;5064768;28;20045;-67
2022/07/04 00:24:48;;;;;;;8.13;3.35;;;;;;;17.91;96.66;97216.00;5064222;28;20044;-67
2022/07/04 00:27:15;;;;;;;7.20;3.63;;;;;;;17.82;98.44;97217.69;5064282;28;20581;-66
2022/07/04 00:29:42;;;;;;;6.47;4.00;;;;;;;17.77;100.00;97215.31;5064258;28;20045;-67
2022/07/04 00:32:09;;;;;;;9.93;3.75;;;;;;;17.66;99.95;97192.22;5064270;28;20134;-73
2022/07/04 00:34:36;;;;;;;8.65;3.90;;;;;;;17.66;100.00;97209.81;5064077;28;20531;-74
2022/07/04 00:37:03;;;;;;;7.03;3.80;;;;;;;17.67;100.00;97199.41;5064084;28;20061;-65
2022/07/04 00:39:30;;;;;;;4.10;3.22;;;;;;;17.72;99.61;97218.59;5064379;28;20045;-66
2022/07/04 00:41:57;;;;;;;11.05;3.70;;;;;;;17.62;98.87;97191.44;5062563;28;21101;-66
2022/07/04 00:44:24;;;;;;;5.57;4.00;;;;;;;17.59;100.00;97175.47;5063815;28;20061;-66
2022/07/04 00:46:50;;;;;;;7.65;4.18;;;;;;;17.85;98.37;97206.47;5063943;28;20556;-75
2022/07/04 00:49:18;;;;;;;7.80;3.88;;;;;;;17.70;99.19;97199.38;5064431;28;20400;-68
2022/07/04 00:51:45;;;;;;;6.70;3.78;;;;;;;17.58;97.13;97176.66;5064081;28;20091;-76
2022/07/04 00:54:15;;;;;;;7.93;3.97;;;;;;;17.59;98.16;97176.25;5062454;28;20437;-68
2022/07/04 00:56:43;;;;;;;4.53;3.42;;;;;;;17.68;99.06;97195.41;5064145;28;20078;-74
2022/07/04 00:59:11;;;;;;;5.72;3.30;;;;;;;17.55;99.63;97174.69;5062637;28;20321;-66
2022/07/04 01:01:38;;;;;;;7.80;3.60;;;;;;;17.52;98.44;97178.31;5062812;28;20053;-66
2022/07/04 01:04:06;;;;;;;7.25;3.80;;;;;;;17.51;99.60;97193.53;5053056;28;20059;-75
2022/07/04 01:06:34;;;;;;;8.05;3.97;;;;;;;17.51;99.87;97185.13;5062252;28;20052;-66
2022/07/04 01:09:01;;;;;;;6.15;4.20;;;;;;;17.21;99.40;97142.94;5063995;28;20118;-68
2022/07/04 01:11:27;;;;;;;8.20;3.47;;;;;;;17.30;98.11;97129.25;5044035;28;20068;-74
2022/07/04 01:13:54;;;;;;;6.55;3.42;;;;;;;17.64;98.96;97183.44;5043784;28;20523;-67
2022/07/04 01:16:23;;;;;;;5.05;3.45;;;;;;;17.61;96.72;97189.84;5043629;28;20053;-75
2022/07/04 01:18:51;;;;;;;8.15;3.90;;;;;;;17.21;97.51;97128.94;5045779;28;20053;-66
2022/07/04 01:21:19;;;;;;;7.10;3.78;;;;;;;17.61;96.67;97185.03;5047487;28;20442;-66
2022/07/04 01:23:46;;;;;;;4.80;3.47;;;;;;;17.60;96.97;97188.25;5046383;28;20053;-66
2022/07/04 01:26:12;;;;;;;8.45;4.10;;;;;;;17.37;97.57;97146.00;5045689;28;20562;-67
2022/07/04 01:28:40;;;;;;;10.15;3.80;;;;;;;17.55;98.56;97186.69;5047844;28;20527;-73
2022/07/04 01:31:07;;;;;;;10.20;3.67;;;;;;;17.54;97.43;97185.13;5047802;28;20048;-73
2022/07/04 01:33:33;;;;;;;6.90;3.95;;;;;;;17.45;98.30;97178.38;5047362;28;20172;-75
2022/07/04 01:36:00;;;;;;;9.55;3.45;;;;;;;17.41;96.77;97177.56;5045717;28;20045;-73
2022/07/04 01:38:27;;;;;;;3.55;3.15;;;;;;;17.40;98.21;97178.78;5047357;28;20057;-73
2022/07/04 01:40:53;;;;;;;6.75;3.85;;;;;;;17.42;98.48;97177.16;5045797;28;20056;-75
2022/07/04 01:43:20;;;;;;;5.55;3.92;;;;;;;16.98;98.21;97095.09;5047372;28;20060;-68
2022/07/04 01:45:47;;;;;;;5.32;3.33;;;;;;;17.25;98.50;97160.50;5045829;28;20049;-74
2022/07/04 01:48:14;;;;;;;6.85;3.60;;;;;;;17.46;98.06;97182.78;5047171;28;20060;-65
2022/07/04 01:50:41;;;;;;;9.02;3.85;;;;;;;17.44;98.79;97180.38;5033681;28;20513;-67
2022/07/04 01:53:08;;;;;;;6.63;3.60;;;;;;;16.19;98.05;96982.13;5055538;28;20466;-66
2022/07/04 01:55:34;;;;;;;6.90;4.13;;;;;;;17.35;97.96;97179.22;5046921;28;20482;-74
2022/07/04 01:58:01;;;;;;;8.23;4.25;;;;;;;16.96;98.85;97198.28;5047451;28;20095;-66
2022/07/04 02:03:13;;;;;;;4.45;4.05;;;;;;;17.32;98.13;97199.66;5047338;28;20052;-74
2022/07/04 02:05:42;;;;;;;5.45;4.03;;;;;;;17.35;98.36;97182.84;5046927;28;20056;-74
2022/07/04 02:08:10;;;;;;;6.72;3.70;;;;;;;17.08;98.02;97155.81;5046963;28;20175;-66
2022/07/04 02:10:37;;;;;;;8.38;3.33;;;;;;;16.89;98.46;97143.16;5057225;28;20060;-74
2022/07/04 02:13:04;;;;;;;5.72;3.20;;;;;;;17.01;99.66;97164.28;5067145;28;20474;-68
2022/07/04 02:15:36;;;;;;;6.43;3.58;;;;;;;17.18;98.35;97192.13;5066611;28;20056;-74
2022/07/04 02:18:05;;;;;;;6.45;3.70;;;;;;;17.09;100.00;97191.00;5067219;28;20056;-74
2022/07/04 02:20:33;;;;;;;8.20;3.85;;;;;;;17.00;100.00;97193.44;5067290;28;20083;-76
2022/07/04 02:23:00;;;;;;;6.90;3.97;;;;;;;17.01;98.64;97189.47;5067007;28;20052;-74
2022/07/04 02:25:27;;;;;;;7.03;4.53;;;;;;;17.02;99.03;97196.66;5066783;28;20057;-67
2022/07/04 02:27:54;;;;;;;7.90;4.13;;;;;;;16.96;100.00;97187.09;5066338;28;20052;-73
2022/07/04 02:30:22;;;;;;;9.20;4.45;;;;;;;16.86;100.00;97187.94;5066036;28;20059;-67
2022/07/04 02:32:49;;;;;;;6.82;3.85;;;;;;;16.96;99.48;97198.28;5066486;28;20052;-65
2022/07/04 02:35:16;;;;;;;8.25;3.72;;;;;;;16.28;99.97;97108.25;5066460;28;20052;-67
2022/07/04 02:37:43;;;;;;;4.80;4.30;;;;;;;16.16;100.00;97077.97;5066602;28;20052;-66
2022/07/04 02:40:10;;;;;;;7.00;3.72;;;;;;;16.91;100.00;97184.72;5064958;28;20296;-65
2022/07/04 02:42:37;;;;;;;5.60;4.03;;;;;;;16.69;99.50;97161.66;5064988;28;20502;-66
2022/07/04 02:45:05;;;;;;;8.57;4.28;;;;;;;16.93;100.00;97183.09;5065795;28;20510;-73
2022/07/04 02:47:32;;;;;;;6.53;4.82;;;;;;;16.44;100.00;97103.03;5066232;28;20044;-76
2022/07/04 02:50:01;;;;;;;9.88;4.75;;;;;;;16.91;100.00;97190.31;5066542;28;20071;-74
2022/07/04 02:52:29;;;;;;;6.45;4.28;;;;;;;16.88;100.00;97194.72;5068507;28;20060;-67
2022/07/04 02:54:57;;;;;;;11.05;4.53;;;;;;;16.82;99.54;97192.75;5064618;28;20492;-75
2022/07/04 02:57:24;;;;;;;5.38;3.88;;;;;;;16.87;99.19;97189.50;5064768;28;20045;-75
2022/07/04 02:59:51;;;;;;;6.68;4.32;;;;;;;16.90;99.41;97180.34;5065662;28;20045;-75
2022/07/04 03:02:18;;;;;;;5.63;4.13;;;;;;;16.60;98.64;97125.72;5065932;28;20450;-67
2022/07/04 03:04:45;;;;;;;4.38;3.97;;;;;;;16.81;99.47;97188.34;5065963;28;20059;-75
2022/07/04 03:07:12;;;;;;;9.63;4.53;;;;;;;16.88;99.45;97196.72;5064957;28;20525;-66
2022/07/04 03:09:39;;;;;;;4.30;3.70;;;;;;;16.42;100.00;97130.56;5062030;28;20470;-66
2022/07/04 03:12:06;;;;;;;6.65;3.80;;;;;;;16.68;100.00;97181.66;5044955;28;20065;-74
2022/07/04 03:14:34;;;;;;;6.43;4.32;;;;;;;16.69;100.00;97186.03;5043832;28;20530;-74
2022/07/04 03:17:00;;;;;;;7.30;4.45;;;;;;;16.80;100.00;97186.78;5044941;28;20059;-74
2022/07/04 03:19:27;;;;;;;5.25;4.10;;;;;;;16.63;100.00;97141.69;5045157;28;20049;-66
2022/07/04 03:21:54;;;;;;;9.05;4.05;;;;;;;17.15;100.00;97189.38;5043958;28;20045;-65
2022/07/04 03:24:21;;;;;;;4.63;4.10;;;;;;;17.18;99.66;97171.75;5043592;28;20049;-73
2022/07/04 03:26:47;;;;;;;7.40;4.68;;;;;;;17.46;98.20;97199.56;5045099;28;20061;-76
2022/07/04 03:29:14;;;;;;;7.20;4.30;;;;;;;17.57;97.63;97200.28;5043506;28;20052;-74
2022/07/04 03:31:41;;;;;;;5.70;4.55;;;;;;;17.66;96.30;97193.00;5045157;28;20057;-77
2022/07/04 03:34:07;;;;;;;14.88;4.70;;;;;;;17.84;96.44;97204.88;5044933;28;20499;-68
2022/07/04 03:36:34;;;;;;;6.88;4.15;;;;;;;17.55;95.75;97144.69;5044800;28;20053;-67
2022/07/04 03:39:02;;;;;;;9.63;4.18;;;;;;;17.95;94.84;97199.16;5044882;28;20114;-75
2022/07/04 03:41:28;;;;;;;5.57;4.30;;;;;;;17.81;93.11;97176.88;5043425;28;20055;-67
2022/07/04 03:43:55;;;;;;;6.95;3.92;;;;;;;17.93;93.87;97179.16;5044956;28;20064;-75
2022/07/04 03:46:22;;;;;;;5.55;3.85;;;;;;;18.16;92.21;97200.97;5044763;28;20063;-76
2022/07/04 03:48:49;;;;;;;8.15;4.18;;;;;;;18.29;90.67;97183.19;5043766;28;20511;-69
2022/07/04 03:51:16;;;;;;;5.90;4.50;;;;;;;17.85;90.20;97110.38;5044701;28;20072;-73
2022/07/04 03:53:43;;;;;;;7.57;4.03;;;;;;;18.49;90.99;97195.44;5044940;28;20064;-68
2022/07/04 03:56:10;;;;;;;10.50;4.43;;;;;;;18.64;88.96;97194.03;5043528;28;20052;-73
2022/07/04 03:58:37;;;;;;;8.45;4.80;;;;;;;18.38;89.31;97163.91;5045114;28;20056;-69
2022/07/04 04:01:03;;;;;;;5.88;4.07;;;;;;;18.75;89.52;97197.50;5044910;28;20060;-71
2022/07/04 04:06:16;;;;;;;15.25;4.40;;;;;;;18.51;87.03;97153.69;5044697;28;20052;-72
2022/07/04 04:08:42;;;;;;;6.20;4.00;;;;;;;18.60;87.64;97156.81;5044614;28;20522;-70
2022/07/04 04:11:09;;;;;;;8.30;5.10;;;;;;;18.73;86.73;97149.41;5058398;28;20052;-71
2022/07/04 04:13:36;;;;;;;10.30;4.72;;;;;;;19.11;86.07;97206.28;5064857;28;20052;-69
2022/07/04 04:16:03;;;;;;;9.00;5.15;;;;;;;18.69;86.43;97187.97;5064486;28;20056;-73
2022/07/04 04:18:31;;;;;;;9.63;4.80;;;;;;;19.26;87.72;97200.03;5064264;28;20249;-65
2022/07/04 04:20:58;;;;;;;6.50;4.38;;;;;;;19.18;86.14;97204.16;5063961;28;20052;-70
2022/07/04 04:23:24;;;;;;;10.10;4.35;;;;;;;19.35;85.40;97202.31;5062661;28;20531;-66
2022/07/04 04:25:51;;;;;;;8.15;4.53;;;;;;;19.12;85.67;97172.16;5062927;28;20056;-72
2022/07/04 04:28:21;;;;;;;6.28;4.30;;;;;;;19.49;86.04;97193.66;5062847;28;20159;-68
2022/07/04 04:30:48;;;;;;;5.00;4.20;;;;;;;19.88;85.29;97201.47;5062702;28;20076;-71
2022/07/04 04:33:15;;;;;;;9.13;4.60;;;;;;;19.76;83.93;97176.81;5062801;28;20055;-72
2022/07/04 04:35:42;;;;;;;9.15;4.97;;;;;;;19.54;83.89;97115.31;5064142;28;20087;-68
2022/07/04 04:38:09;;;;;;;9.65;4.75;;;;;;;20.35;82.06;97214.31;5062849;28;20053;-69
2022/07/04 04:40:36;;;;;;;9.05;5.05;;;;;;;20.36;80.57;97199.06;5062908;28;20139;-67
2022/07/04 04:43:02;;;;;;;8.25;4.60;;;;;;;20.52;79.14;97213.19;5064388;28;20048;-70
2022/07/04 04:45:29;;;;;;;8.00;4.35;;;;;;;20.01;79.25;97130.13;5044316;28;20056;-67
2022/07/04 04:47:56;;;;;;;6.10;4.30;;;;;;;20.67;78.26;97208.88;5043930;28;20049;-69
2022/07/04 04:50:22;;;;;;;5.18;4.28;;;;;;;20.42;78.37;97169.19;5042430;28;20063;-69
2022/07/04 04:52:49;;;;;;;6.35;4.65;;;;;;;20.86;77.86;97205.28;5045811;28;20068;-67
2022/07/04 04:55:16;;;;;;;7.03;4.97;;;;;;;20.56;77.77;97140.75;4674063;28;10009474;-71
2022/07/04 04:57:42;;;;;;;6.80;4.75;;;;;;;20.88;78.01;97208.47;5057690;28;20060;-68
2022/07/04 05:00:10;;;;;;;11.65;5.50;;;;;;;20.85;77.71;97173.50;5047993;28;20076;-69
2022/07/04 05:02:37;;;;;;;7.72;5.68;;;;;;;21.01;78.07;97223.50;5048252;28;20405;-67
2022/07/04 05:05:04;;;;;;;7.80;5.28;;;;;;;20.69;77.25;97110.72;5047967;28;20053;-69
2022/07/04 05:07:33;;;;;;;6.95;4.78;;;;;;;21.24;77.37;97157.78;5046319;28;20045;-69
2022/07/04 05:10:01;;;;;;;10.60;4.82;;;;;;;21.66;78.10;97196.25;5052020;28;20047;-66
2022/07/04 05:12:27;;;;;;;9.00;5.40;;;;;;;21.91;77.20;97197.25;5066268;28;20056;-70
2022/07/04 05:14:55;;;;;;;7.25;5.15;;;;;;;22.00;76.60;97193.84;5067636;28;20048;-67
2022/07/04 05:17:22;;;;;;;7.38;5.22;;;;;;;22.15;75.96;97195.84;5068151;28;20495;-70
2022/07/04 05:19:48;;;;;;;9.05;5.88;;;;;;;22.30;76.14;97197.03;5067594;28;20048;-69
2022/07/04 05:22:15;;;;;;;8.82;5.68;;;;;;;22.11;76.06;97147.16;5067672;28;20075;-70
2022/07/04 05:24:42;;;;;;;13.45;6.65;;;;;;;22.64;74.32;97192.94;5067013;28;20063;-67
2022/07/04 05:27:09;;;;;;;8.07;5.80;;;;;;;22.75;74.61;97187.78;5067281;28;20083;-67
2022/07/04 05:29:37;;;;;;;8.55;6.70;;;;;;;23.02;74.42;97191.03;5060428;28;20068;-68
2022/07/04 05:32:06;;;;;;;9.77;5.32;;;;;;;22.90;72.63;97150.22;5039529;28;20041;-65
2022/07/04 05:34:34;;;;;;;10.05;5.80;;;;;;;21.17;73.34;96843.19;5042781;28;20045;-68
2022/07/04 05:37:02;;;;;;;8.40;5.28;;;;;;;22.98;71.83;97094.28;5035079;28;20057;-68
2022/07/04 05:39:29;;;;;;;7.97;5.88;;;;;;;23.79;71.07;97182.97;5050879;28;20060;-66
2022/07/04 05:41:56;;;;;;;7.68;4.97;;;;;;;23.78;71.10;97141.78;5044481;28;20044;-71
2022/07/04 05:44:23;;;;;;;9.98;5.57;;;;;;;23.92;70.67;97121.47;5039443;28;20072;-61
2022/07/04 05:46:49;;;;;;;6.63;4.75;;;;;;;24.38;65.43;97168.84;5042898;28;20124;-72
2022/07/04 05:49:16;;;;;;;8.73;4.70;;;;;;;24.67;62.58;97169.44;5038812;28;20050;-64
2022/07/04 05:51:43;;;;;;;6.47;4.55;;;;;;;24.75;65.38;97170.75;5030889;28;20052;-67
2022/07/04 05:54:10;;;;;;;4.53;3.92;;;;;;;24.70;57.58;97128.84;5028916;28;20049;-65
2022/07/04 05:56:37;;;;;;;6.68;5.03;;;;;;;22.52;58.66;96818.16;5032430;28;20061;-71
2022/07/04 05:59:04;;;;;;;8.90;4.85;;;;;;;25.28;60.12;97168.72;5041061;28;20048;-70
2022/07/04 06:01:31;;;;;;;10.32;6.45;;;;;;;25.41;62.37;97160.16;5040098;28;20069;-69
2022/07/04 06:03:57;;;;;;;5.97;5.38;;;;;;;25.21;63.76;97079.03;5038011;28;20045;-61
2022/07/04 06:06:24;;;;;;;6.47;5.40;;;;;;;24.89;64.21;97017.19;5041082;28;20045;-65
2022/07/04 06:08:51;;;;;;;6.07;4.70;;;;;;;25.51;62.04;97062.50;5037556;28;20045;-67
2022/07/04 06:11:18;;;;;;;5.63;4.60;;;;;;;26.35;63.35;97161.13;5040858;28;20928;-66
2022/07/04 06:13:45;;;;;;;10.30;4.97;;;;;;;26.50;62.52;97156.38;5037908;28;20048;-62
2022/07/04 06:16:11;;;;;;;6.68;4.43;;;;;;;26.61;62.80;97151.81;5041664;28;20048;-62
2022/07/04 06:18:38;;;;;;;9.90;4.90;;;;;;;26.61;62.35;97162.38;5041929;28;20113;-62
2022/07/04 06:21:05;;;;;;;4.78;4.30;;;;;;;26.74;61.54;97143.16;5039553;28;20044;-69
2022/07/04 06:23:32;;;;;;;5.93;5.32;;;;;;;25.97;59.06;97004.53;5037839;28;20102;-72
2022/07/04 06:25:59;;;;;;;7.60;4.90;;;;;;;27.24;57.13;97142.41;5039338;28;20534;-68
2022/07/04 06:28:26;;;;;;;10.30;4.95;;;;;;;27.08;56.13;97105.03;5040449;28;20050;-65
2022/07/04 06:31:12;;;;;;;5.95;5.10;;;;;;;26.05;55.57;96897.94;5035984;28;20057;-65
2022/07/04 06:36:24;;;;;;;8.95;4.57;;;;;;;27.12;52.82;97008.94;5040370;28;20061;-67
2022/07/04 06:38:51;;;;;;;9.65;5.22;;;;;;;28.04;53.27;97143.38;5038731;28;20053;-68
2022/07/04 06:41:18;;;;;;;5.72;5.20;;;;;;;27.78;48.88;97073.13;5040990;28;20602;-66
2022/07/04 06:43:44;;;;;;;5.78;5.18;;;;;;;27.74;49.43;97044.81;5042844;28;20052;-63
2022/07/04 06:46:11;;;;;;;5.43;4.93;;;;;;;28.04;48.13;97083.56;5041743;28;20061;-69
2022/07/04 06:48:38;;;;;;;9.93;5.60;;;;;;;28.33;48.41;97141.97;5040644;28;20578;-62
2022/07/04 06:51:05;;;;;;;8.25;5.95;;;;;;;27.96;48.97;97102.28;5040681;28;20050;-68
2022/07/04 06:53:31;;;;;;;5.82;5.20;;;;;;;28.32;47.76;97134.66;5037385;28;20053;-68
2022/07/04 06:55:58;;;;;;;6.88;5.55;;;;;;;28.41;48.45;97131.75;5039126;28;20061;-73
2022/07/04 06:58:25;;;;;;;8.02;5.28;;;;;;;28.31;48.07;97130.25;5039234;28;20056;-73
2022/07/04 07:00:51;;;;;;;8.63;5.70;;;;;;;28.76;47.02;97138.47;5038828;28;20053;-70
2022/07/04 07:03:18;;;;;;;7.22;5.25;;;;;;;28.71;48.38;97087.81;5036666;28;20061;-73
2022/07/04 07:05:45;;;;;;;7.97;5.35;;;;;;;29.12;46.97;97126.72;5037529;28;20045;-64
2022/07/04 07:08:26;;;;;;;5.53;4.95;;;;;;;29.27;45.99;97130.38;5038979;28;20523;-62
2022/07/04 07:10:54;;;;;;;7.57;5.80;;;;;;;29.25;45.52;97070.13;5041877;28;20053;-65
2022/07/04 07:13:21;;;;;;;5.53;5.03;;;;;;;29.30;45.01;97078.81;5040107;28;20552;-66
2022/07/04 07:15:48;;;;;;;5.22;4.72;;;;;;;29.72;41.94;97129.84;5039689;28;20095;-61
2022/07/04 07:18:16;;;;;;;5.82;5.32;;;;;;;29.76;40.99;97113.31;5038267;28;20097;-64
2022/07/04 07:20:43;;;;;;;4.80;4.30;;;;;;;29.30;42.35;97100.84;5040189;28;20064;-61
2022/07/04 07:23:09;;;;;;;5.43;4.93;;;;;;;29.71;42.89;97108.28;5038447;28;20065;-67
2022/07/04 07:25:36;;;;;;;7.03;4.63;;;;;;;29.91;42.23;97105.47;5039679;28;20409;-69
2022/07/04 07:28:03;;;;;;;5.60;4.35;;;;;;;29.96;41.07;97101.91;5039166;28;20056;-61
2022/07/04 07:30:29;;;;;;;11.98;5.57;;;;;;;30.02;39.53;97094.19;5036824;28;20049;-71
2022/07/04 07:32:56;;;;;;;6.07;4.90;;;;;;;30.23;38.76;97092.97;5039351;28;20524;-63
2022/07/04 07:35:23;;;;;;;5.03;4.53;;;;;;;30.06;37.04;97057.66;5036078;28;20053;-66
2022/07/04 07:37:49;;;;;;;8.63;5.13;;;;;;;30.04;39.51;97091.63;5038771;28;20367;-63
2022/07/04 07:40:16;;;;;;;7.10;6.35;;;;;;;30.17;39.78;97123.53;5039888;28;20508;-65
2022/07/04 07:42:43;;;;;;;7.15;5.00;;;;;;;30.39;38.57;97094.47;5029452;28;20060;-72
2022/07/04 07:45:10;;;;;;;8.77;4.72;;;;;;;30.24;38.46;97077.38;5035462;28;20049;-61
2022/07/04 07:47:36;;;;;;;5.90;4.68;;;;;;;29.93;39.70;97017.19;5054957;28;20139;-75
2022/07/04 07:50:04;;;;;;;6.95;5.22;;;;;;;30.52;38.22;97087.09;5038683;28;20064;-65
2022/07/04 07:52:31;;;;;;;6.47;5.93;;;;;;;29.23;40.17;97016.41;5037861;28;20068;-73
2022/07/04 07:54:57;;;;;;;5.63;5.13;;;;;;;29.64;39.13;97108.69;5035774;28;20045;-68
2022/07/04 07:57:26;;;;;;;8.02;5.68;;;;;;;29.62;39.25;97059.06;5038302;28;20184;-64
2022/07/04 07:59:53;;;;;;;9.40;4.63;;;;;;;29.61;39.69;97081.09;5038983;28;20500;-66
2022/07/04 08:04:33;;;;;;;7.50;6.10;;;;;;;29.15;40.27;96957.41;5038250;28;20057;-71
2022/07/04 08:05:08;;;;;;;7.47;5.35;;;;;;;30.35;40.26;97077.53;5036780;28;20053;-66
2022/07/04 08:07:34;;;;;;;8.50;5.95;;;;;;;29.66;38.90;96954.78;5039924;28;20051;-66
2022/07/04 08:10:01;;;;;;;8.48;5.20;;;;;;;30.24;38.33;97008.78;5035175;28;20079;-68
2022/07/04 08:12:28;;;;;;;5.85;4.75;;;;;;;30.98;38.03;97083.47;5038793;28;20061;-72
2022/07/04 08:14:55;;;;;;;7.38;4.82;;;;;;;30.96;36.73;97046.75;5035636;28;20503;-63
2022/07/04 08:17:22;;;;;;;6.95;5.10;;;;;;;31.30;36.42;97085.06;5037554;28;20057;-70
2022/07/04 08:19:49;;;;;;;6.05;5.45;;;;;;;31.28;36.73;97056.16;5040322;28;20175;-64
2022/07/04 08:22:16;;;;;;;11.85;6.40;;;;;;;30.90;36.19;97000.91;5037169;28;20048;-63
2022/07/04 08:24:43;;;;;;;8.40;5.15;;;;;;;31.32;35.89;97085.34;5037645;28;20049;-65
2022/07/04 08:27:11;;;;;;;5.25;4.70;;;;;;;31.15;36.36;97059.44;5035647;28;20053;-80
2022/07/04 08:29:39;;;;;;;6.13;4.53;;;;;;;31.52;34.89;97082.41;5035593;28;20057;-61
2022/07/04 08:32:09;;;;;;;5.05;4.55;;;;;;;31.07;36.55;97028.91;5039842;28;20641;-67
2022/07/04 08:34:36;;;;;;;6.13;4.68;;;;;;;31.45;36.74;97082.88;5037738;28;20049;-69
2022/07/04 08:37:03;;;;;;;5.18;4.75;;;;;;;31.52;36.06;97077.44;5035061;28;20515;-67
2022/07/04 08:39:30;;;;;;;10.32;4.90;;;;;;;31.56;36.32;97080.88;5034293;28;20059;-63
2022/07/04 08:42:02;;;;;;;7.88;4.72;;;;;;;31.57;36.16;97124.66;5036954;28;20375;-65
2022/07/04 08:44:30;;;;;;;6.25;4.47;;;;;;;31.24;35.60;97015.50;5038187;28;20183;-63
2022/07/04 08:46:57;;;;;;;5.28;4.75;;;;;;;31.63;35.65;97086.13;5038554;28;20521;-60
2022/07/04 08:49:29;;;;;;;7.43;4.55;;;;;;;31.30;35.54;97002.03;5040103;28;20053;-64
2022/07/04 08:52:03;;;;;;;5.63;4.17;;;;;;;31.95;35.60;97089.75;5037737;28;20053;-67
2022/07/04 09:00:05;;;;;;;5.18;4.63;;;;;;;31.48;35.77;97078.97;4995786;28;20408;-68
2022/07/04 09:02:34;;;;;;;5.40;5.03;;;;;;;30.51;35.67;96999.72;4995286;28;20072;-68
2022/07/04 09:05:01;;;;;;;6.13;5.07;;;;;;;31.45;34.90;97082.88;4991165;28;20061;-64
2022/07/04 09:07:28;;;;;;;5.32;4.93;;;;;;;31.71;35.88;97072.91;4991460;28;20578;-67
2022/07/04 09:09:57;;;;;;;6.70;5.75;;;;;;;31.13;35.23;97081.25;4990145;28;20052;-67
2022/07/04 09:12:24;;;;;;;7.50;5.57;;;;;;;30.98;35.73;97061.34;4988683;28;20080;-65
2022/07/04 09:14:52;;;;;;;5.32;4.82;;;;;;;31.35;35.71;97049.97;4993757;28;20049;-67
2022/07/04 09:17:20;;;;;;;13.75;5.03;;;;;;;31.94;35.37;97071.00;4992740;28;20171;-63
2022/07/04 09:20:25;;;;;;;5.20;4.80;;;;;;;32.10;34.61;97076.06;4995017;28;20099;-63
2022/07/04 09:22:53;;;;;;;5.40;5.00;;;;;;;32.23;34.31;97064.91;4995174;28;20049;-64
2022/07/04 09:25:23;;;;;;;6.22;5.70;;;;;;;32.34;34.22;97068.59;4997543;28;20049;-66
2022/07/04 09:27:57;;;;;;;5.63;4.88;;;;;;;32.51;33.71;97068.72;4999192;28;20539;-64
2022/07/04 09:30:26;;;;;;;8.20;5.07;;;;;;;32.81;33.44;97061.22;4996924;28;20063;-65
2022/07/04 09:33:00;;;;;;;19.40;5.95;;;;;;;32.94;33.33;97064.44;4995279;28;20338;-65
2022/07/04 09:35:30;;;;;;;6.35;5.75;;;;;;;32.41;33.41;96987.03;4994615;28;20375;-64
2022/07/04 09:38:02;;;;;;;6.07;5.57;;;;;;;32.92;32.79;97064.16;4990598;28;20140;-64
2022/07/04 09:41:24;;;;;;;7.70;4.97;;;;;;;31.28;32.99;96804.19;4997768;28;20065;-62
2022/07/04 09:43:21;;;;;;;9.80;6.60;;;;;;;32.50;32.78;97064.25;4995891;28;20059;-62
2022/07/04 09:45:59;;;;;;;5.30;4.90;;;;;;;33.02;32.28;97099.91;4998801;28;20049;-65
2022/07/04 09:48:46;;;;;;;6.70;5.57;;;;;;;32.73;33.13;97008.50;4999530;28;20056;-64
2022/07/04 09:51:13;;;;;;;5.38;4.97;;;;;;;33.19;32.66;97017.47;4996709;28;20080;-65
2022/07/04 09:53:40;;;;;;;5.60;5.10;;;;;;;28.45;33.33;96522.41;4998701;28;20107;-67
2022/07/04 09:56:07;;;;;;;5.50;5.00;;;;;;;32.29;34.31;97031.31;4996655;28;20059;-67
2022/07/04 09:58:34;;;;;;;11.65;5.60;;;;;;;31.55;33.42;96846.53;4998474;28;20056;-65
2022/07/04 10:01:01;;;;;;;6.05;5.32;;;;;;;32.96;33.47;97033.09;4998707;28;20056;-66
2022/07/04 10:03:36;;;;;;;5.22;4.72;;;;;;;33.02;32.55;97031.00;4999440;28;20590;-66
2022/07/04 10:06:11;;;;;;;7.18;5.63;;;;;;;33.24;31.95;97042.53;4999363;28;20123;-62
2022/07/04 10:08:43;;;;;;;8.38;4.93;;;;;;;33.02;31.90;96967.84;5001815;28;20538;-62
2022/07/04 10:11:11;;;;;;;5.43;5.03;;;;;;;33.69;32.43;97032.59;4999262;28;20053;-66
2022/07/04 10:13:45;;;;;;;5.80;5.38;;;;;;;33.78;32.48;97037.28;4999165;28;20045;-62
2022/07/04 10:16:16;;;;;;;6.88;5.45;;;;;;;33.71;31.68;97004.13;5000800;28;20355;-66
2022/07/04 10:18:43;;;;;;;6.15;5.57;;;;;;;32.37;31.13;96791.50;5001645;28;20053;-66
2022/07/04 10:21:11;;;;;;;8.55;5.38;;;;;;;34.37;30.81;97026.13;4998659;28;20045;-64
2022/07/04 10:23:39;;;;;;;5.50;5.05;;;;;;;34.47;31.76;97020.88;5001727;28;20053;-63
2022/07/04 10:26:06;;;;;;;6.60;5.38;;;;;;;33.56;31.35;96914.53;4999958;28;20072;-63
2022/07/04 10:28:33;;;;;;;7.15;5.38;;;;;;;34.16;31.29;97024.91;5001230;28;20052;-66
2022/07/04 10:31:01;;;;;;;10.13;5.28;;;;;;;34.05;31.77;97007.69;5001414;28;20586;-66
2022/07/04 10:33:30;;;;;;;5.55;5.05;;;;;;;34.30;31.29;97018.06;5000736;28;20072;-63
2022/07/04 10:36:03;;;;;;;6.15;5.55;;;;;;;34.39;31.11;97014.13;5000869;28;20080;-63
2022/07/04 10:38:34;;;;;;;6.22;4.72;;;;;;;34.41;30.25;97052.56;4998192;28;20059;-63
2022/07/04 10:41:07;;;;;;;8.05;6.15;;;;;;;33.15;32.12;97016.94;4997318;28;20057;-66
2022/07/04 10:43:43;;;;;;;6.97;5.88;;;;;;;33.33;32.28;97016.41;5000520;28;20053;-66
2022/07/04 10:46:13;;;;;;;7.05;6.40;;;;;;;33.48;33.14;97005.44;5001212;28;20060;-63
2022/07/04 10:48:54;;;;;;;6.50;5.90;;;;;;;32.84;33.79;97005.66;4995233;28;20052;-68
2022/07/04 10:51:42;;;;;;;5.35;4.95;;;;;;;33.14;34.10;97046.97;4994484;28;20056;-67
2022/07/04 10:54:11;;;;;;;7.15;5.03;;;;;;;32.87;33.12;96990.25;4994677;28;20057;-62
2022/07/04 10:56:44;;;;;;;7.10;5.55;;;;;;;33.06;33.23;96979.88;4997554;28;20071;-64
2022/07/04 10:59:16;;;;;;;5.18;4.78;;;;;;;33.64;32.24;96990.28;4996193;28;20761;-70
2022/07/04 11:01:48;;;;;;;5.60;5.20;;;;;;;33.55;32.55;96993.44;4993052;28;20053;-66
2022/07/04 11:04:49;;;;;;;7.47;6.40;;;;;;;32.19;32.55;96806.31;4995060;28;20122;-71
2022/07/04 11:07:22;;;;;;;13.80;7.30;;;;;;;33.90;33.11;96989.19;4995583;28;20824;-69
2022/07/04 11:10:11;;;;;;;6.57;5.45;;;;;;;34.22;33.07;96987.50;4999346;28;20650;-65
2022/07/04 11:12:59;;;;;;;8.75;5.40;;;;;;;33.56;33.41;96983.50;4999602;28;20057;-68
2022/07/04 11:15:28;;;;;;;7.63;6.85;;;;;;;33.85;32.11;96993.63;4998886;28;20466;-69
2022/07/04 11:17:57;;;;;;;8.07;5.35;;;;;;;33.98;32.60;96998.84;4993625;28;20045;-66
2022/07/04 11:20:26;;;;;;;5.82;5.38;;;;;;;34.34;31.54;96955.25;4993277;28;20049;-67
2022/07/04 11:23:04;;;;;;;6.32;5.65;;;;;;;34.13;31.81;96933.91;4998517;28;20167;-62
2022/07/04 11:25:32;;;;;;;6.60;6.00;;;;;;;34.68;31.28;96978.91;4996871;28;20065;-65
2022/07/04 11:28:19;;;;;;;6.95;6.35;;;;;;;34.77;31.16;96969.94;4992315;28;20060;-63
2022/07/04 11:31:06;;;;;;;6.72;6.20;;;;;;;34.41;31.43;96994.22;4992211;28;20057;-70
2022/07/04 11:33:35;;;;;;;7.13;6.38;;;;;;;34.12;30.87;96868.31;4975302;28;20069;-65
2022/07/04 11:36:14;;;;;;;6.18;5.68;;;;;;;34.93;31.26;96960.44;4969660;28;20053;-70
2022/07/04 11:38:51;;;;;;;6.88;5.57;;;;;;;34.39;31.13;96833.66;4975466;28;20107;-71
2022/07/04 11:47:15;;;;;;;6.05;5.55;;;;;;;32.74;31.50;96693.63;4987636;28;20049;-69
2022/07/04 11:49:49;;;;;;;6.07;5.65;;;;;;;34.21;30.51;96837.13;4996261;28;20081;-62
2022/07/04 11:52:17;;;;;;;7.60;5.50;;;;;;;32.83;32.52;96851.97;4991999;28;20057;-61
2022/07/04 11:55:02;;;;;;;9.20;6.28;;;;;;;34.12;32.28;96954.59;4998456;28;20676;-69
2022/07/04 11:57:40;;;;;;;7.28;5.90;;;;;;;33.78;31.90;96953.13;4999140;28;20247;-68